TimeEDT,TemperatureF,Dew PointF,Humidity,Sea Level PressureIn,VisibilityMPH,Wind Direction,Wind SpeedMPH,Gust SpeedMPH,PrecipitationIn,Events,Conditions,WindDirDegrees,DateUTC
12:53 AM,64.0,59.0,84,30.13,10.0,NNE,6.9,-,N/A,,Partly Cloudy,30,2014-03-09 05:53:00
1:53 AM,64.9,59.0,81,30.12,10.0,NNE,5.8,-,N/A,,Clear,30,2014-03-09 06:53:00
3:53 AM,64.9,59.0,81,30.11,10.0,NNE,5.8,-,N/A,,Clear,30,2014-03-09 07:53:00
4:53 AM,64.9,59.0,81,30.09,10.0,NE,4.6,-,N/A,,Clear,50,2014-03-09 08:53:00
5:53 AM,64.9,59.0,81,30.10,10.0,NE,4.6,-,N/A,,Clear,50,2014-03-09 09:53:00
6:53 AM,64.9,60.1,84,30.12,10.0,ENE,4.6,-,N/A,,Partly Cloudy,60,2014-03-09 10:53:00
7:53 AM,64.9,60.1,84,30.13,10.0,NE,5.8,-,N/A,,Mostly Cloudy,50,2014-03-09 11:53:00
8:53 AM,68.0,61.0,78,30.15,10.0,NE,5.8,-,N/A,,Mostly Cloudy,50,2014-03-09 12:53:00
9:53 AM,72.0,61.0,68,30.16,10.0,ENE,8.1,-,N/A,,Mostly Cloudy,60,2014-03-09 13:53:00
10:53 AM,73.0,61.0,66,30.18,10.0,East,5.8,-,N/A,,Mostly Cloudy,90,2014-03-09 14:53:00
11:53 AM,75.0,62.1,64,30.18,10.0,East,6.9,-,N/A,,Mostly Cloudy,100,2014-03-09 15:53:00
12:53 PM,75.9,61.0,60,30.17,10.0,ENE,6.9,-,N/A,,Overcast,70,2014-03-09 16:53:00
1:53 PM,75.9,63.0,64,30.15,10.0,Variable,5.8,-,N/A,,Overcast,0,2014-03-09 17:53:00
2:53 PM,78.1,64.0,62,30.12,10.0,Variable,6.9,-,N/A,,Mostly Cloudy,0,2014-03-09 18:53:00
3:53 PM,75.9,63.0,64,30.11,10.0,ENE,6.9,-,N/A,,Scattered Clouds,60,2014-03-09 19:53:00
4:53 PM,77.0,62.1,60,30.10,10.0,North,-9999.0,-,N/A,,Scattered Clouds,0,2014-03-09 20:53:00
5:53 PM,75.9,61.0,60,30.09,10.0,SE,6.9,-,N/A,,Scattered Clouds,130,2014-03-09 21:53:00
6:53 PM,73.0,63.0,71,30.09,10.0,Calm,Calm,-,N/A,,Partly Cloudy,0,2014-03-09 22:53:00
7:53 PM,71.1,61.0,70,30.09,10.0,ESE,4.6,-,N/A,,Partly Cloudy,120,2014-03-09 23:53:00
8:53 PM,70.0,63.0,78,30.11,10.0,Calm,Calm,-,N/A,,Partly Cloudy,0,2014-03-10 00:53:00
9:53 PM,70.0,62.1,76,30.13,10.0,Calm,Calm,-,N/A,,Partly Cloudy,0,2014-03-10 01:53:00
10:53 PM,69.1,64.9,87,30.14,10.0,NNE,3.5,-,N/A,,Clear,30,2014-03-10 02:53:00
11:53 PM,68.0,64.0,87,30.14,10.0,NNE,4.6,-,N/A,,Clear,30,2014-03-10 03:53:00
12:53 AM,69.1,64.0,84,30.13,10.0,NE,3.5,-,N/A,,Scattered Clouds,50,2014-03-10 04:53:00